Briefing drone pour Deols

Rechercher une autre localisation

Conditions de vol :


Nous sommes le : Jeudi 11 août 2022
Il est 21:44 UTC (23:44 LT)

Lever de soleil : 04:19 UTC (06:19 LT)
Coucher de soleil : 19:37 UTC (21:37 LT)

Météo

L'essentiel des conditions de vol

VIGILANCE MÉTÉO FRANCE - Indre (36)
Pas de vigilances particulieres
METAR de LFLX
LFLX 112130Z AUTO 03009KT CAVOK 22/07 Q1015 NOSIG

Date d'émission: 11/08/2022
Heure d'émission: 21:30 UTC
Vent: 030° pour 9 KT (17 km/h)
Visibilité horizontale: > 10 km
Plafond : Plafond et visibilité OK (CAVOK)
Température: 22 °C
Point de rosée: 7 °C
Humidité: 38%
Pression (QNH): 1015 hPa
Conditions: Pas de changement dans les 2 heures (NOSIG)
TAF de LFLX
LFLX 111700Z 1118/1224 06007KT CAVOK

Conditions prévues :

Heure d'émission : Bulletin éffectué le 11 à 18:00 UTC
Prévision : Valide du 11 a 18:00 UTC au 12 a 23:59 UTC
Vent : 60° pour 7 KT (13 km/h)
Visibilité : > 10 km
WEBCAM POUR DEOLS

Réglementation

Voler en sécurité

CARTES AERONAUTIQUE 1/500.000
CARTE AZBA (Reseau basse altitude)
CARTES VAC (LFLX)
SUP AIP




Chargement des AIP...
NOTAM (DEOLS + Terrain à proximité / FIR )




Chargement des NOTAMS...
CONTACT PREFECTURE 36


Avertissement : Les données mises à disposition sont indicatives. Oxygène Drone ne pourra être tenu responsable de dégâts causés aux biens et aux personnes.